sensor_id;sensor_type;location;lat;lon;timestamp;temperature;humidity
63407;SHT31;49543;45.892;10.838;2023-08-30T05:46:39;18.18;86.25
63407;SHT31;49543;45.892;10.838;2023-08-30T05:49:04;18.24;86.99
63407;SHT31;49543;45.892;10.838;2023-08-30T05:51:30;18.24;87.33
63407;SHT31;49543;45.892;10.838;2023-08-30T05:53:56;18.25;87.36
63407;SHT31;49543;45.892;10.838;2023-08-30T05:56:21;18.26;87.50
63407;SHT31;49543;45.892;10.838;2023-08-30T05:58:47;18.26;87.63
63407;SHT31;49543;45.892;10.838;2023-08-30T06:01:13;18.32;87.83
63407;SHT31;49543;45.892;10.838;2023-08-30T06:03:39;18.32;87.89
63407;SHT31;49543;45.892;10.838;2023-08-30T06:06:04;18.35;87.81
63407;SHT31;49543;45.892;10.838;2023-08-30T06:08:30;18.39;86.59
63407;SHT31;49543;45.892;10.838;2023-08-30T06:10:55;18.41;85.89
63407;SHT31;49543;45.892;10.838;2023-08-30T06:13:22;18.43;85.52
63407;SHT31;49543;45.892;10.838;2023-08-30T06:15:51;18.48;86.11
63407;SHT31;49543;45.892;10.838;2023-08-30T09:36:22;23.54;66.73
63407;SHT31;49543;45.892;10.838;2023-08-30T09:38:48;23.75;65.10
63407;SHT31;49543;45.892;10.838;2023-08-30T09:41:16;23.95;60.79
63407;SHT31;49543;45.892;10.838;2023-08-30T09:43:44;24.08;61.10
63407;SHT31;49543;45.892;10.838;2023-08-30T09:46:11;24.20;60.93
63407;SHT31;49543;45.892;10.838;2023-08-30T09:48:37;24.32;62.35
63407;SHT31;49543;45.892;10.838;2023-08-30T09:51:05;24.29;61.89
63407;SHT31;49543;45.892;10.838;2023-08-30T09:53:36;24.33;62.11
63407;SHT31;49543;45.892;10.838;2023-08-30T09:56:03;24.29;60.65
63407;SHT31;49543;45.892;10.838;2023-08-30T09:58:29;24.08;61.79
63407;SHT31;49543;45.892;10.838;2023-08-30T10:00:55;23.97;62.57
63407;SHT31;49543;45.892;10.838;2023-08-30T10:03:21;23.97;62.04
63407;SHT31;49543;45.892;10.838;2023-08-30T10:05:47;23.95;62.15
63407;SHT31;49543;45.892;10.838;2023-08-30T10:08:14;23.88;61.80
63407;SHT31;49543;45.892;10.838;2023-08-30T10:10:39;23.79;60.06
63407;SHT31;49543;45.892;10.838;2023-08-30T10:13:06;23.77;60.32
63407;SHT31;49543;45.892;10.838;2023-08-30T10:15:33;23.79;61.44
63407;SHT31;49543;45.892;10.838;2023-08-30T10:18:01;23.92;62.55
63407;SHT31;49543;45.892;10.838;2023-08-30T10:20:28;24.02;62.64
63407;SHT31;49543;45.892;10.838;2023-08-30T10:22:55;24.05;62.30
63407;SHT31;49543;45.892;10.838;2023-08-30T10:25:25;24.16;62.26
63407;SHT31;49543;45.892;10.838;2023-08-30T10:27:52;24.25;60.37
63407;SHT31;49543;45.892;10.838;2023-08-30T10:30:20;24.30;59.68
63407;SHT31;49543;45.892;10.838;2023-08-30T10:32:46;24.41;59.33
63407;SHT31;49543;45.892;10.838;2023-08-30T10:35:13;24.59;58.56
63407;SHT31;49543;45.892;10.838;2023-08-30T10:37:39;24.71;59.78
63407;SHT31;49543;45.892;10.838;2023-08-30T10:40:05;24.88;60.77
63407;SHT31;49543;45.892;10.838;2023-08-30T10:42:31;24.94;58.47
63407;SHT31;49543;45.892;10.838;2023-08-30T10:45:02;24.95;59.93
63407;SHT31;49543;45.892;10.838;2023-08-30T10:47:34;25.01;58.61
63407;SHT31;49543;45.892;10.838;2023-08-30T10:50:10;25.15;62.14
63407;SHT31;49543;45.892;10.838;2023-08-30T10:52:36;25.23;62.77
63407;SHT31;49543;45.892;10.838;2023-08-30T10:55:10;25.33;61.77
63407;SHT31;49543;45.892;10.838;2023-08-30T10:57:36;25.45;60.91
63407;SHT31;49543;45.892;10.838;2023-08-30T11:00:10;25.42;60.40
63407;SHT31;49543;45.892;10.838;2023-08-30T11:02:37;25.39;61.33
63407;SHT31;49543;45.892;10.838;2023-08-30T11:05:05;25.33;60.79
63407;SHT31;49543;45.892;10.838;2023-08-30T11:07:31;25.35;59.95
63407;SHT31;49543;45.892;10.838;2023-08-30T11:09:57;25.33;62.34
63407;SHT31;49543;45.892;10.838;2023-08-30T11:12:23;25.35;61.67
63407;SHT31;49543;45.892;10.838;2023-08-30T11:14:52;25.50;62.02
63407;SHT31;49543;45.892;10.838;2023-08-30T11:17:17;25.65;63.11
63407;SHT31;49543;45.892;10.838;2023-08-30T11:19:44;25.83;63.78
63407;SHT31;49543;45.892;10.838;2023-08-30T11:22:10;26.08;63.58
63407;SHT31;49543;45.892;10.838;2023-08-30T11:24:35;26.21;61.19
63407;SHT31;49543;45.892;10.838;2023-08-30T11:27:01;26.31;61.47
63407;SHT31;49543;45.892;10.838;2023-08-30T11:29:27;26.42;60.10
63407;SHT31;49543;45.892;10.838;2023-08-30T11:31:52;26.59;58.60
63407;SHT31;49543;45.892;10.838;2023-08-30T11:34:21;26.87;56.26
63407;SHT31;49543;45.892;10.838;2023-08-30T11:36:47;27.15;56.49
63407;SHT31;49543;45.892;10.838;2023-08-30T11:39:16;27.49;56.99
63407;SHT31;49543;45.892;10.838;2023-08-30T11:41:42;27.56;56.59
63407;SHT31;49543;45.892;10.838;2023-08-30T11:44:08;27.62;57.73
63407;SHT31;49543;45.892;10.838;2023-08-30T11:46:35;27.53;59.26
63407;SHT31;49543;45.892;10.838;2023-08-30T16:26:25;23.81;72.81
63407;SHT31;49543;45.892;10.838;2023-08-30T16:28:50;23.78;72.25
63407;SHT31;49543;45.892;10.838;2023-08-30T16:31:15;23.79;72.75
63407;SHT31;49543;45.892;10.838;2023-08-30T16:33:42;23.82;72.98
63407;SHT31;49543;45.892;10.838;2023-08-30T16:36:08;23.79;73.59
63407;SHT31;49543;45.892;10.838;2023-08-30T16:38:33;23.75;74.08
63407;SHT31;49543;45.892;10.838;2023-08-30T16:40:59;23.65;75.11
63407;SHT31;49543;45.892;10.838;2023-08-30T16:43:29;23.63;75.30
63407;SHT31;49543;45.892;10.838;2023-08-30T16:45:55;23.57;75.17
63407;SHT31;49543;45.892;10.838;2023-08-30T16:48:25;23.53;75.45
63407;SHT31;49543;45.892;10.838;2023-08-30T16:50:51;23.50;75.83
63407;SHT31;49543;45.892;10.838;2023-08-30T16:53:16;23.46;76.39
63407;SHT31;49543;45.892;10.838;2023-08-30T16:55:42;23.43;77.08
63407;SHT31;49543;45.892;10.838;2023-08-30T16:58:07;23.37;77.65
63407;SHT31;49543;45.892;10.838;2023-08-30T17:00:33;23.33;77.95
63407;SHT31;49543;45.892;10.838;2023-08-30T17:02:58;23.31;78.12
63407;SHT31;49543;45.892;10.838;2023-08-30T17:05:24;23.28;77.80
63407;SHT31;49543;45.892;10.838;2023-08-30T17:07:51;23.22;77.34
63407;SHT31;49543;45.892;10.838;2023-08-30T17:10:17;23.17;76.76
63407;SHT31;49543;45.892;10.838;2023-08-30T17:12:43;23.09;76.29
63407;SHT31;49543;45.892;10.838;2023-08-30T17:15:09;22.98;76.16
63407;SHT31;49543;45.892;10.838;2023-08-30T17:17:34;22.92;76.21
63407;SHT31;49543;45.892;10.838;2023-08-30T17:20:00;22.87;76.42
63407;SHT31;49543;45.892;10.838;2023-08-30T17:22:25;22.85;76.78
63407;SHT31;49543;45.892;10.838;2023-08-30T17:24:51;22.82;76.89
63407;SHT31;49543;45.892;10.838;2023-08-30T17:27:17;22.75;75.81
63407;SHT31;49543;45.892;10.838;2023-08-30T17:29:42;22.72;76.35
63407;SHT31;49543;45.892;10.838;2023-08-30T17:32:08;22.75;76.51
63407;SHT31;49543;45.892;10.838;2023-08-30T17:34:33;22.81;76.68
63407;SHT31;49543;45.892;10.838;2023-08-30T22:32:30;20.90;81.07
63407;SHT31;49543;45.892;10.838;2023-08-30T22:34:56;20.85;81.08
